sensor_id;sensor_type;location;lat;lon;timestamp;pressure;altitude;pressure_sealevel;temperature;humidity
61568;BME280;47462;59.172;17.196;2023-01-25T00:01:35;102000.66;;;4.58;95.08
61568;BME280;47462;59.172;17.196;2023-01-25T00:04:00;102023.31;;;4.71;95.13
61568;BME280;47462;59.172;17.196;2023-01-25T00:06:26;101968.47;;;4.39;95.15
61568;BME280;47462;59.172;17.196;2023-01-25T00:08:51;102016.34;;;4.67;94.94
61568;BME280;47462;59.172;17.196;2023-01-25T00:11:17;101973.72;;;4.43;95.40
61568;BME280;47462;59.172;17.196;2023-01-25T00:13:44;101998.06;;;4.56;95.23
61568;BME280;47462;59.172;17.196;2023-01-25T00:16:09;101999.81;;;4.57;95.37
61568;BME280;47462;59.172;17.196;2023-01-25T00:18:34;102006.94;;;4.71;95.02
61568;BME280;47462;59.172;17.196;2023-01-25T00:21:18;101981.69;;;4.56;94.96
61568;BME280;47462;59.172;17.196;2023-01-25T00:23:44;102019.25;;;4.86;95.02
61568;BME280;47462;59.172;17.196;2023-01-25T00:26:10;102005.50;;;4.91;95.29
61568;BME280;47462;59.172;17.196;2023-01-25T00:28:35;102002.09;;;4.92;95.14
61568;BME280;47462;59.172;17.196;2023-01-25T00:31:05;101998.56;;;4.87;95.03
61568;BME280;47462;59.172;17.196;2023-01-25T00:33:55;102008.00;;;4.85;94.86
61568;BME280;47462;59.172;17.196;2023-01-25T00:38:57;101971.72;;;4.80;95.32
61568;BME280;47462;59.172;17.196;2023-01-25T00:41:23;101990.88;;;4.92;95.29
61568;BME280;47462;59.172;17.196;2023-01-25T00:43:49;101984.81;;;4.91;95.65
61568;BME280;47462;59.172;17.196;2023-01-25T00:46:15;101932.59;;;4.57;95.24
61568;BME280;47462;59.172;17.196;2023-01-25T00:48:41;101930.06;;;4.62;95.50
61568;BME280;47462;59.172;17.196;2023-01-25T00:51:06;101963.91;;;4.76;95.08
61568;BME280;47462;59.172;17.196;2023-01-25T00:53:31;101941.38;;;4.67;95.31
61568;BME280;47462;59.172;17.196;2023-01-25T00:55:57;101952.78;;;4.81;95.49
61568;BME280;47462;59.172;17.196;2023-01-25T00:58:23;101982.25;;;4.93;95.66
61568;BME280;47462;59.172;17.196;2023-01-25T01:00:48;101896.97;;;4.39;95.19
61568;BME280;47462;59.172;17.196;2023-01-25T01:03:14;101959.63;;;4.76;95.32
61568;BME280;47462;59.172;17.196;2023-01-25T01:05:40;101972.78;;;4.92;95.54
61568;BME280;47462;59.172;17.196;2023-01-25T01:08:05;101940.56;;;4.71;95.80
61568;BME280;47462;59.172;17.196;2023-01-25T01:10:30;101971.97;;;4.96;95.47
61568;BME280;47462;59.172;17.196;2023-01-25T01:12:56;101953.81;;;4.94;95.46
61568;BME280;47462;59.172;17.196;2023-01-25T01:15:21;101953.84;;;4.96;95.37
61568;BME280;47462;59.172;17.196;2023-01-25T01:17:46;101933.94;;;4.89;95.24
61568;BME280;47462;59.172;17.196;2023-01-25T01:20:12;101830.41;;;4.23;94.87
61568;BME280;47462;59.172;17.196;2023-01-25T01:22:37;101945.16;;;4.91;95.08
61568;BME280;47462;59.172;17.196;2023-01-25T01:25:03;101925.97;;;4.75;95.14
61568;BME280;47462;59.172;17.196;2023-01-25T01:27:29;101878.97;;;4.47;95.70
61568;BME280;47462;59.172;17.196;2023-01-25T01:29:54;101937.34;;;4.88;95.85
61568;BME280;47462;59.172;17.196;2023-01-25T01:32:20;101935.63;;;4.88;95.77
61568;BME280;47462;59.172;17.196;2023-01-25T01:34:45;101880.09;;;4.63;95.67
61568;BME280;47462;59.172;17.196;2023-01-25T01:37:10;101883.38;;;4.53;95.34
61568;BME280;47462;59.172;17.196;2023-01-25T01:39:36;101942.56;;;4.91;95.26
61568;BME280;47462;59.172;17.196;2023-01-25T01:42:02;101928.84;;;4.95;95.15
61568;BME280;47462;59.172;17.196;2023-01-25T01:44:44;101933.00;;;4.85;95.34
61568;BME280;47462;59.172;17.196;2023-01-25T01:47:24;101858.31;;;4.47;95.16
61568;BME280;47462;59.172;17.196;2023-01-25T01:49:57;101868.06;;;4.67;95.44
61568;BME280;47462;59.172;17.196;2023-01-25T01:52:28;101930.59;;;4.97;95.87
61568;BME280;47462;59.172;17.196;2023-01-25T01:55:07;101921.91;;;4.94;95.60
61568;BME280;47462;59.172;17.196;2023-01-25T01:57:41;101914.13;;;4.92;96.11
61568;BME280;47462;59.172;17.196;2023-01-25T02:00:17;101920.25;;;4.99;95.59
61568;BME280;47462;59.172;17.196;2023-01-25T02:02:44;101867.28;;;4.71;95.93
61568;BME280;47462;59.172;17.196;2023-01-25T02:05:16;101837.78;;;4.58;95.80
61568;BME280;47462;59.172;17.196;2023-01-25T02:07:46;101819.50;;;4.45;95.93
61568;BME280;47462;59.172;17.196;2023-01-25T02:10:13;101910.75;;;4.95;95.34
61568;BME280;47462;59.172;17.196;2023-01-25T02:12:40;101909.91;;;4.99;95.82
61568;BME280;47462;59.172;17.196;2023-01-25T02:15:07;101913.44;;;5.04;95.41
61568;BME280;47462;59.172;17.196;2023-01-25T02:17:34;101897.03;;;5.04;95.63
61568;BME280;47462;59.172;17.196;2023-01-25T02:25:18;101889.25;;;5.02;95.59
61568;BME280;47462;59.172;17.196;2023-01-25T02:27:49;101877.94;;;4.92;95.97
61568;BME280;47462;59.172;17.196;2023-01-25T02:30:16;101895.34;;;5.06;95.64
61568;BME280;47462;59.172;17.196;2023-01-25T02:32:42;101898.81;;;5.06;95.50
61568;BME280;47462;59.172;17.196;2023-01-25T02:35:17;101882.47;;;5.09;95.30
61568;BME280;47462;59.172;17.196;2023-01-25T02:37:43;101731.38;;;4.25;95.02
61568;BME280;47462;59.172;17.196;2023-01-25T02:40:09;101865.25;;;5.14;95.15
61568;BME280;47462;59.172;17.196;2023-01-25T02:42:35;101767.94;;;4.55;95.01
61568;BME280;47462;59.172;17.196;2023-01-25T02:45:01;101850.47;;;5.05;95.32
61568;BME280;47462;59.172;17.196;2023-01-25T02:47:27;101866.06;;;5.10;95.27
61568;BME280;47462;59.172;17.196;2023-01-25T02:49:52;101835.69;;;4.92;95.76
61568;BME280;47462;59.172;17.196;2023-01-25T02:52:18;101819.19;;;4.85;95.54
61568;BME280;47462;59.172;17.196;2023-01-25T02:54:43;101846.34;;;5.16;95.40
61568;BME280;47462;59.172;17.196;2023-01-25T02:57:09;101833.22;;;5.03;95.51
61568;BME280;47462;59.172;17.196;2023-01-25T02:59:35;101841.88;;;5.06;95.24
61568;BME280;47462;59.172;17.196;2023-01-25T03:02:01;101773.41;;;4.76;95.03
61568;BME280;47462;59.172;17.196;2023-01-25T03:04:26;101792.44;;;4.81;95.15
61568;BME280;47462;59.172;17.196;2023-01-25T03:06:51;101817.75;;;5.06;95.35
61568;BME280;47462;59.172;17.196;2023-01-25T03:09:17;101834.25;;;5.17;95.61
61568;BME280;47462;59.172;17.196;2023-01-25T03:11:42;101774.41;;;4.88;95.52
61568;BME280;47462;59.172;17.196;2023-01-25T03:14:08;101807.34;;;5.03;95.51
61568;BME280;47462;59.172;17.196;2023-01-25T03:16:33;101829.13;;;5.22;95.51
61568;BME280;47462;59.172;17.196;2023-01-25T03:18:59;101812.63;;;5.10;95.44
61568;BME280;47462;59.172;17.196;2023-01-25T03:21:24;101808.34;;;5.14;95.19
61568;BME280;47462;59.172;17.196;2023-01-25T03:23:55;101788.31;;;4.97;95.20
61568;BME280;47462;59.172;17.196;2023-01-25T03:26:21;101803.91;;;5.04;95.36
61568;BME280;47462;59.172;17.196;2023-01-25T03:28:47;101813.53;;;5.15;95.13
61568;BME280;47462;59.172;17.196;2023-01-25T03:31:14;101832.56;;;5.22;95.28
61568;BME280;47462;59.172;17.196;2023-01-25T03:33:40;101810.09;;;5.15;95.50
61568;BME280;47462;59.172;17.196;2023-01-25T03:36:06;101827.41;;;5.24;94.87
61568;BME280;47462;59.172;17.196;2023-01-25T03:38:32;101812.75;;;5.23;95.04
61568;BME280;47462;59.172;17.196;2023-01-25T03:40:58;101789.34;;;5.12;94.95
61568;BME280;47462;59.172;17.196;2023-01-25T03:43:23;101777.25;;;5.11;94.96
61568;BME280;47462;59.172;17.196;2023-01-25T03:45:54;101660.97;;;4.43;95.14
61568;BME280;47462;59.172;17.196;2023-01-25T03:48:20;101796.41;;;5.27;95.38
61568;BME280;47462;59.172;17.196;2023-01-25T03:50:57;101794.69;;;5.26;95.30
61568;BME280;47462;59.172;17.196;2023-01-25T03:53:27;101730.47;;;4.92;95.23
61568;BME280;47462;59.172;17.196;2023-01-25T03:56:05;101777.44;;;5.28;95.16
61568;BME280;47462;59.172;17.196;2023-01-25T03:58:35;101781.72;;;5.24;94.73
61568;BME280;47462;59.172;17.196;2023-01-25T04:01:03;101773.97;;;5.26;95.30
61568;BME280;47462;59.172;17.196;2023-01-25T04:03:28;101774.00;;;5.27;95.10
61568;BME280;47462;59.172;17.196;2023-01-25T04:05:55;101726.25;;;5.02;95.00
61568;BME280;47462;59.172;17.196;2023-01-25T04:08:21;101763.53;;;5.16;95.30
61568;BME280;47462;59.172;17.196;2023-01-25T04:13:17;101732.44;;;5.13;95.21
61568;BME280;47462;59.172;17.196;2023-01-25T04:15:42;101763.69;;;5.33;95.29
61568;BME280;47462;59.172;17.196;2023-01-25T04:18:08;101729.03;;;5.21;95.38
61568;BME280;47462;59.172;17.196;2023-01-25T04:20:34;101748.22;;;5.38;94.99
61568;BME280;47462;59.172;17.196;2023-01-25T04:23:00;101747.38;;;5.41;95.32
61568;BME280;47462;59.172;17.196;2023-01-25T04:25:26;101731.81;;;5.36;95.13
61568;BME280;47462;59.172;17.196;2023-01-25T04:27:51;101684.09;;;5.09;95.09
61568;BME280;47462;59.172;17.196;2023-01-25T04:30:17;101729.22;;;5.36;95.38
61568;BME280;47462;59.172;17.196;2023-01-25T04:32:42;101736.94;;;5.30;95.59
61568;BME280;47462;59.172;17.196;2023-01-25T04:35:08;101720.41;;;5.20;95.41
61568;BME280;47462;59.172;17.196;2023-01-25T04:37:33;101725.72;;;5.32;95.51
61568;BME280;47462;59.172;17.196;2023-01-25T04:39:59;101602.59;;;4.61;95.56
61568;BME280;47462;59.172;17.196;2023-01-25T04:42:24;101734.38;;;5.33;95.08
61568;BME280;47462;59.172;17.196;2023-01-25T04:44:49;101730.03;;;5.32;95.41
61568;BME280;47462;59.172;17.196;2023-01-25T04:47:15;101741.31;;;5.40;95.43
61568;BME280;47462;59.172;17.196;2023-01-25T04:49:40;101733.56;;;5.43;95.52
61568;BME280;47462;59.172;17.196;2023-01-25T04:52:05;101698.88;;;5.23;95.51
61568;BME280;47462;59.172;17.196;2023-01-25T04:54:31;101721.47;;;5.39;95.13
61568;BME280;47462;59.172;17.196;2023-01-25T04:56:56;101612.22;;;4.79;94.69
61568;BME280;47462;59.172;17.196;2023-01-25T04:59:21;101705.88;;;5.30;94.80
61568;BME280;47462;59.172;17.196;2023-01-25T05:01:47;101630.41;;;4.87;94.81
61568;BME280;47462;59.172;17.196;2023-01-25T05:04:12;101724.91;;;5.36;94.88
61568;BME280;47462;59.172;17.196;2023-01-25T05:06:38;101721.50;;;5.41;95.29
61568;BME280;47462;59.172;17.196;2023-01-25T05:09:03;101697.13;;;5.20;94.98
61568;BME280;47462;59.172;17.196;2023-01-25T05:11:28;101727.50;;;5.38;94.84
61568;BME280;47462;59.172;17.196;2023-01-25T05:13:54;101640.72;;;4.85;94.53
61568;BME280;47462;59.172;17.196;2023-01-25T05:16:19;101732.69;;;5.38;94.62
61568;BME280;47462;59.172;17.196;2023-01-25T05:18:45;101678.13;;;5.15;94.91
61568;BME280;47462;59.172;17.196;2023-01-25T05:21:10;101708.47;;;5.33;94.78
61568;BME280;47462;59.172;17.196;2023-01-25T05:23:56;101690.41;;;5.38;94.86
61568;BME280;47462;59.172;17.196;2023-01-25T05:26:21;101690.25;;;5.24;95.03
61568;BME280;47462;59.172;17.196;2023-01-25T05:29:05;101653.88;;;5.07;95.10
61568;BME280;47462;59.172;17.196;2023-01-25T05:31:30;101645.28;;;5.09;94.80
61568;BME280;47462;59.172;17.196;2023-01-25T05:33:56;101716.34;;;5.44;94.68
61568;BME280;47462;59.172;17.196;2023-01-25T05:36:21;101716.34;;;5.44;95.18
61568;BME280;47462;59.172;17.196;2023-01-25T05:38:46;101671.22;;;5.17;94.93
61568;BME280;47462;59.172;17.196;2023-01-25T05:41:12;101692.16;;;5.43;94.74
61568;BME280;47462;59.172;17.196;2023-01-25T05:43:37;101590.78;;;4.91;94.75
61568;BME280;47462;59.172;17.196;2023-01-25T05:46:02;101644.63;;;5.35;94.89
61568;BME280;47462;59.172;17.196;2023-01-25T05:48:29;101615.16;;;5.17;94.55
61568;BME280;47462;59.172;17.196;2023-01-25T05:50:56;101680.94;;;5.44;94.21
61568;BME280;47462;59.172;17.196;2023-01-25T05:53:26;101647.16;;;5.27;94.70
61568;BME280;47462;59.172;17.196;2023-01-25T05:55:52;101625.47;;;5.13;94.85
61568;BME280;47462;59.172;17.196;2023-01-25T05:58:17;101650.66;;;5.32;94.58
61568;BME280;47462;59.172;17.196;2023-01-25T06:00:42;101697.38;;;5.49;94.98
61568;BME280;47462;59.172;17.196;2023-01-25T06:03:08;101617.75;;;5.21;94.98
61568;BME280;47462;59.172;17.196;2023-01-25T06:05:33;101632.53;;;5.34;94.64
61568;BME280;47462;59.172;17.196;2023-01-25T06:07:59;101552.84;;;4.93;94.44
61568;BME280;47462;59.172;17.196;2023-01-25T06:10:24;101641.34;;;5.54;94.59
61568;BME280;47462;59.172;17.196;2023-01-25T06:12:56;101506.28;;;4.90;94.04
61568;BME280;47462;59.172;17.196;2023-01-25T06:15:21;101650.03;;;5.64;94.40
61568;BME280;47462;59.172;17.196;2023-01-25T06:17:47;101613.72;;;5.53;94.33
61568;BME280;47462;59.172;17.196;2023-01-25T06:20:12;101635.31;;;5.62;94.21
61568;BME280;47462;59.172;17.196;2023-01-25T06:22:38;101573.78;;;5.24;94.45
61568;BME280;47462;59.172;17.196;2023-01-25T06:25:03;101631.88;;;5.61;94.33
61568;BME280;47462;59.172;17.196;2023-01-25T06:27:29;101569.47;;;5.18;94.42
61568;BME280;47462;59.172;17.196;2023-01-25T06:29:54;101609.38;;;5.51;94.09
61568;BME280;47462;59.172;17.196;2023-01-25T06:32:20;101630.13;;;5.60;94.44
61568;BME280;47462;59.172;17.196;2023-01-25T06:34:45;101560.91;;;5.27;94.25
61568;BME280;47462;59.172;17.196;2023-01-25T06:37:11;101589.53;;;5.51;94.42
61568;BME280;47462;59.172;17.196;2023-01-25T06:39:36;101477.78;;;4.82;93.98
61568;BME280;47462;59.172;17.196;2023-01-25T06:42:01;101606.00;;;5.64;94.67
61568;BME280;47462;59.172;17.196;2023-01-25T06:44:27;101583.50;;;5.56;94.28
61568;BME280;47462;59.172;17.196;2023-01-25T06:46:54;101600.00;;;5.67;94.37
61568;BME280;47462;59.172;17.196;2023-01-25T06:49:19;101565.34;;;5.48;94.31
61568;BME280;47462;59.172;17.196;2023-01-25T06:51:44;101588.75;;;5.66;94.39
61568;BME280;47462;59.172;17.196;2023-01-25T06:54:10;101606.94;;;5.77;94.01
61568;BME280;47462;59.172;17.196;2023-01-25T06:56:35;101619.03;;;5.78;94.07
61568;BME280;47462;59.172;17.196;2023-01-25T06:59:00;101562.75;;;5.51;93.40
61568;BME280;47462;59.172;17.196;2023-01-25T07:01:26;101612.97;;;5.75;93.65
61568;BME280;47462;59.172;17.196;2023-01-25T07:03:57;101607.78;;;5.73;93.74
61568;BME280;47462;59.172;17.196;2023-01-25T07:06:23;101606.94;;;5.77;93.69
61568;BME280;47462;59.172;17.196;2023-01-25T07:08:49;101517.75;;;5.24;93.85
61568;BME280;47462;59.172;17.196;2023-01-25T07:11:16;101625.06;;;5.80;93.78
61568;BME280;47462;59.172;17.196;2023-01-25T07:13:43;101584.41;;;5.61;93.75
61568;BME280;47462;59.172;17.196;2023-01-25T07:16:15;101621.69;;;5.90;93.72
61568;BME280;47462;59.172;17.196;2023-01-25T07:18:41;101564.63;;;5.72;93.28
61568;BME280;47462;59.172;17.196;2023-01-25T07:21:15;101569.75;;;5.63;93.24
61568;BME280;47462;59.172;17.196;2023-01-25T07:23:41;101598.34;;;5.83;92.68
61568;BME280;47462;59.172;17.196;2023-01-25T07:26:23;101494.44;;;5.23;92.89
61568;BME280;47462;59.172;17.196;2023-01-25T07:28:50;101575.88;;;5.83;92.90
61568;BME280;47462;59.172;17.196;2023-01-25T07:31:17;101594.94;;;5.95;92.82
61568;BME280;47462;59.172;17.196;2023-01-25T07:33:50;101584.56;;;5.90;92.71
61568;BME280;47462;59.172;17.196;2023-01-25T07:36:16;101598.38;;;5.94;92.80
61568;BME280;47462;59.172;17.196;2023-01-25T07:38:42;101587.16;;;5.88;92.47
61568;BME280;47462;59.172;17.196;2023-01-25T07:41:07;101525.69;;;5.53;92.58
61568;BME280;47462;59.172;17.196;2023-01-25T07:43:33;101548.22;;;5.73;92.51
61568;BME280;47462;59.172;17.196;2023-01-25T07:46:03;101565.59;;;5.93;92.22
61568;BME280;47462;59.172;17.196;2023-01-25T07:48:29;101537.00;;;5.76;92.10
61568;BME280;47462;59.172;17.196;2023-01-25T07:50:59;101533.59;;;5.83;92.03
61568;BME280;47462;59.172;17.196;2023-01-25T07:53:38;101524.88;;;5.65;91.68
61568;BME280;47462;59.172;17.196;2023-01-25T07:56:04;101549.13;;;5.81;91.97
61568;BME280;47462;59.172;17.196;2023-01-25T07:58:30;101543.94;;;5.81;91.88
61568;BME280;47462;59.172;17.196;2023-01-25T08:00:55;101560.38;;;5.89;92.08
61568;BME280;47462;59.172;17.196;2023-01-25T08:03:21;101440.13;;;5.27;91.72
61568;BME280;47462;59.172;17.196;2023-01-25T08:05:47;101500.66;;;5.59;91.90
61568;BME280;47462;59.172;17.196;2023-01-25T08:08:13;101555.22;;;5.94;91.63
61568;BME280;47462;59.172;17.196;2023-01-25T08:10:39;101569.88;;;5.92;91.98
61568;BME280;47462;59.172;17.196;2023-01-25T08:13:04;101490.31;;;5.59;91.64
61568;BME280;47462;59.172;17.196;2023-01-25T08:15:31;101515.41;;;5.75;91.40
61568;BME280;47462;59.172;17.196;2023-01-25T08:17:59;101551.81;;;5.97;91.61
61568;BME280;47462;59.172;17.196;2023-01-25T08:20:25;101528.44;;;5.89;91.78
61568;BME280;47462;59.172;17.196;2023-01-25T08:22:51;101504.25;;;5.88;91.19
61568;BME280;47462;59.172;17.196;2023-01-25T08:25:16;101539.75;;;5.99;91.34
61568;BME280;47462;59.172;17.196;2023-01-25T08:27:42;101536.25;;;5.97;91.38
61568;BME280;47462;59.172;17.196;2023-01-25T08:30:07;101468.75;;;5.61;90.83
61568;BME280;47462;59.172;17.196;2023-01-25T08:32:34;101533.66;;;5.97;91.04
61568;BME280;47462;59.172;17.196;2023-01-25T08:35:00;101497.28;;;5.75;90.78
61568;BME280;47462;59.172;17.196;2023-01-25T08:37:25;101522.38;;;5.85;90.76
61568;BME280;47462;59.172;17.196;2023-01-25T08:39:54;101466.16;;;5.64;91.08
61568;BME280;47462;59.172;17.196;2023-01-25T08:42:21;101483.47;;;5.73;90.50
61568;BME280;47462;59.172;17.196;2023-01-25T08:44:47;101513.72;;;5.89;90.77
61568;BME280;47462;59.172;17.196;2023-01-25T08:47:13;101525.06;;;5.99;90.77
61568;BME280;47462;59.172;17.196;2023-01-25T08:49:38;101473.09;;;5.70;90.57
61568;BME280;47462;59.172;17.196;2023-01-25T08:52:03;101516.41;;;5.97;90.63
61568;BME280;47462;59.172;17.196;2023-01-25T08:54:29;101493.00;;;5.88;90.78
61568;BME280;47462;59.172;17.196;2023-01-25T08:56:54;101519.03;;;6.05;90.79
61568;BME280;47462;59.172;17.196;2023-01-25T08:59:20;101508.66;;;5.99;90.40
61568;BME280;47462;59.172;17.196;2023-01-25T09:01:45;101524.22;;;6.11;90.47
61568;BME280;47462;59.172;17.196;2023-01-25T09:04:10;101521.63;;;6.05;90.31
61568;BME280;47462;59.172;17.196;2023-01-25T09:06:36;101512.09;;;6.04;90.15
61568;BME280;47462;59.172;17.196;2023-01-25T09:09:01;101543.22;;;6.13;90.11
61568;BME280;47462;59.172;17.196;2023-01-25T09:11:28;101489.56;;;5.87;89.55
61568;BME280;47462;59.172;17.196;2023-01-25T09:13:54;101506.97;;;6.16;89.71
61568;BME280;47462;59.172;17.196;2023-01-25T09:16:22;101503.53;;;6.27;89.63
61568;BME280;47462;59.172;17.196;2023-01-25T09:18:56;101508.72;;;6.27;89.20
61568;BME280;47462;59.172;17.196;2023-01-25T09:21:23;101500.94;;;6.33;89.14
61568;BME280;47462;59.172;17.196;2023-01-25T09:23:52;101498.38;;;6.45;89.12
61568;BME280;47462;59.172;17.196;2023-01-25T09:26:18;101502.69;;;6.49;88.87
61568;BME280;47462;59.172;17.196;2023-01-25T09:28:48;101461.16;;;6.24;88.68
61568;BME280;47462;59.172;17.196;2023-01-25T09:31:14;101485.41;;;6.45;89.03
61568;BME280;47462;59.172;17.196;2023-01-25T09:33:40;101463.78;;;6.31;88.82
61568;BME280;47462;59.172;17.196;2023-01-25T09:36:07;101507.00;;;6.44;88.61
61568;BME280;47462;59.172;17.196;2023-01-25T09:38:32;101494.88;;;6.38;89.09
61568;BME280;47462;59.172;17.196;2023-01-25T09:43:52;101494.03;;;6.35;88.83
61568;BME280;47462;59.172;17.196;2023-01-25T09:46:44;101482.81;;;6.33;89.32
61568;BME280;47462;59.172;17.196;2023-01-25T09:54:55;101474.16;;;6.37;89.25
61568;BME280;47462;59.172;17.196;2023-01-25T09:57:30;101458.59;;;6.28;89.06
61568;BME280;47462;59.172;17.196;2023-01-25T10:00:00;101431.78;;;6.02;89.43
61568;BME280;47462;59.172;17.196;2023-01-25T10:05:23;101363.47;;;5.77;89.37
61568;BME280;47462;59.172;17.196;2023-01-25T10:08:01;101462.06;;;6.42;89.48
61568;BME280;47462;59.172;17.196;2023-01-25T10:10:41;101435.25;;;6.32;88.89
61568;BME280;47462;59.172;17.196;2023-01-25T10:13:15;101439.59;;;6.49;88.48
61568;BME280;47462;59.172;17.196;2023-01-25T10:15:46;101392.06;;;6.08;88.45
61568;BME280;47462;59.172;17.196;2023-01-25T10:18:31;101382.56;;;6.19;87.87
61568;BME280;47462;59.172;17.196;2023-01-25T10:21:02;101455.16;;;6.56;88.09
61568;BME280;47462;59.172;17.196;2023-01-25T10:24:04;101445.63;;;6.51;87.82
61568;BME280;47462;59.172;17.196;2023-01-25T10:26:34;101432.66;;;6.38;87.38
61568;BME280;47462;59.172;17.196;2023-01-25T10:29:24;101422.28;;;6.20;86.98
61568;BME280;47462;59.172;17.196;2023-01-25T10:32:01;101411.91;;;6.12;87.19
61568;BME280;47462;59.172;17.196;2023-01-25T10:34:37;101313.38;;;5.53;87.04
61568;BME280;47462;59.172;17.196;2023-01-25T10:37:17;101410.19;;;6.10;86.96
61568;BME280;47462;59.172;17.196;2023-01-25T10:40:01;101443.03;;;6.21;86.84
61568;BME280;47462;59.172;17.196;2023-01-25T10:42:32;101417.09;;;6.04;87.25
61568;BME280;47462;59.172;17.196;2023-01-25T10:45:01;101393.72;;;5.86;87.46
61568;BME280;47462;59.172;17.196;2023-01-25T10:47:29;101427.47;;;6.18;87.23
61568;BME280;47462;59.172;17.196;2023-01-25T10:49:58;101409.31;;;6.09;87.38
61568;BME280;47462;59.172;17.196;2023-01-25T10:52:26;101423.16;;;6.17;87.01
61568;BME280;47462;59.172;17.196;2023-01-25T10:55:15;101319.38;;;5.37;86.68
61568;BME280;47462;59.172;17.196;2023-01-25T10:57:42;101423.16;;;6.03;86.88
61568;BME280;47462;59.172;17.196;2023-01-25T11:02:47;101396.28;;;5.77;87.17
61568;BME280;47462;59.172;17.196;2023-01-25T11:05:32;101418.75;;;5.85;87.13
61568;BME280;47462;59.172;17.196;2023-01-25T11:08:16;101403.22;;;5.88;87.86
61568;BME280;47462;59.172;17.196;2023-01-25T11:10:44;101381.56;;;5.68;86.99
61568;BME280;47462;59.172;17.196;2023-01-25T11:16:09;101372.03;;;5.39;87.94
61568;BME280;47462;59.172;17.196;2023-01-25T11:18:33;101359.94;;;5.41;88.05
61568;BME280;47462;59.172;17.196;2023-01-25T11:21:13;101292.44;;;4.79;88.04
61568;BME280;47462;59.172;17.196;2023-01-25T11:23:40;101345.22;;;5.25;87.90
61568;BME280;47462;59.172;17.196;2023-01-25T11:26:16;101382.38;;;5.39;88.50
61568;BME280;47462;59.172;17.196;2023-01-25T11:28:43;101340.03;;;5.23;88.33
61568;BME280;47462;59.172;17.196;2023-01-25T11:31:11;101384.97;;;5.41;88.42
61568;BME280;47462;59.172;17.196;2023-01-25T11:33:39;101309.78;;;5.08;88.31
61568;BME280;47462;59.172;17.196;2023-01-25T11:38:32;101336.63;;;5.32;88.12
61568;BME280;47462;59.172;17.196;2023-01-25T11:43:46;101334.00;;;5.20;88.17
61568;BME280;47462;59.172;17.196;2023-01-25T11:51:28;101329.66;;;5.14;88.56
61568;BME280;47462;59.172;17.196;2023-01-25T12:02:54;101342.56;;;5.09;88.86
61568;BME280;47462;59.172;17.196;2023-01-25T12:05:50;101339.97;;;5.09;88.54
61568;BME280;47462;59.172;17.196;2023-01-25T12:25:00;101336.44;;;4.89;88.99
61568;BME280;47462;59.172;17.196;2023-01-25T12:30:22;101340.78;;;4.96;89.19
61568;BME280;47462;59.172;17.196;2023-01-25T12:33:14;101325.16;;;4.77;89.18
61568;BME280;47462;59.172;17.196;2023-01-25T12:35:46;101342.47;;;4.89;89.28
61568;BME280;47462;59.172;17.196;2023-01-25T12:39:07;101321.75;;;4.78;88.92
61568;BME280;47462;59.172;17.196;2023-01-25T12:41:22;101345.03;;;4.85;89.20
61568;BME280;47462;59.172;17.196;2023-01-25T12:43:55;101264.66;;;4.40;89.10
61568;BME280;47462;59.172;17.196;2023-01-25T12:46:27;101270.75;;;4.51;89.12
61568;BME280;47462;59.172;17.196;2023-01-25T12:49:00;101339.94;;;4.98;88.93
61568;BME280;47462;59.172;17.196;2023-01-25T12:51:34;101328.72;;;4.95;89.18
61568;BME280;47462;59.172;17.196;2023-01-25T12:54:09;101308.00;;;4.89;88.92
61568;BME280;47462;59.172;17.196;2023-01-25T12:57:00;101181.88;;;4.21;88.88
61568;BME280;47462;59.172;17.196;2023-01-25T13:02:45;101277.72;;;4.63;89.13
61568;BME280;47462;59.172;17.196;2023-01-25T13:10:42;101314.84;;;4.83;89.21
61568;BME280;47462;59.172;17.196;2023-01-25T13:13:27;101278.63;;;4.80;89.08
61568;BME280;47462;59.172;17.196;2023-01-25T13:15:53;101270.88;;;4.77;89.23
61568;BME280;47462;59.172;17.196;2023-01-25T13:20:59;101298.50;;;4.89;89.74
61568;BME280;47462;59.172;17.196;2023-01-25T13:23:33;101305.41;;;4.87;89.97
61568;BME280;47462;59.172;17.196;2023-01-25T13:28:51;101308.00;;;4.92;90.17
61568;BME280;47462;59.172;17.196;2023-01-25T13:34:08;101312.31;;;4.96;89.65
61568;BME280;47462;59.172;17.196;2023-01-25T13:42:13;101289.00;;;4.87;89.46
61568;BME280;47462;59.172;17.196;2023-01-25T13:44:47;101285.59;;;4.92;89.61
61568;BME280;47462;59.172;17.196;2023-01-25T13:47:26;101285.59;;;4.95;89.80
61568;BME280;47462;59.172;17.196;2023-01-25T13:50:17;101270.94;;;4.97;89.55
61568;BME280;47462;59.172;17.196;2023-01-25T13:55:42;101251.09;;;4.82;89.81
61568;BME280;47462;59.172;17.196;2023-01-25T13:58:09;101263.16;;;4.93;89.50
61568;BME280;47462;59.172;17.196;2023-01-25T14:00:35;101246.75;;;4.85;89.40
61568;BME280;47462;59.172;17.196;2023-01-25T14:03:04;101164.72;;;4.39;89.60
61568;BME280;47462;59.172;17.196;2023-01-25T14:05:30;101255.41;;;4.94;89.19
61568;BME280;47462;59.172;17.196;2023-01-25T14:07:56;101199.31;;;4.67;89.42
61568;BME280;47462;59.172;17.196;2023-01-25T14:10:24;101220.88;;;4.74;89.41
61568;BME280;47462;59.172;17.196;2023-01-25T14:12:52;101220.84;;;4.69;89.53
61568;BME280;47462;59.172;17.196;2023-01-25T14:15:26;101213.97;;;4.77;89.94
61568;BME280;47462;59.172;17.196;2023-01-25T14:18:12;101223.44;;;4.72;89.93
61568;BME280;47462;59.172;17.196;2023-01-25T14:20:39;101194.97;;;4.60;90.41
61568;BME280;47462;59.172;17.196;2023-01-25T14:23:04;101218.28;;;4.74;90.13
61568;BME280;47462;59.172;17.196;2023-01-25T14:25:32;101226.91;;;4.74;90.16
61568;BME280;47462;59.172;17.196;2023-01-25T14:28:01;101196.66;;;4.56;89.82
61568;BME280;47462;59.172;17.196;2023-01-25T14:30:32;101124.16;;;4.22;89.94